Time;durP1;ratioP1;P1;durP2;ratioP2;P2;SDS_P1;SDS_P2;PMS_P1;PMS_P2;Temp;Humidity;BMP_temperature;BMP_pressure;BME280_temperature;BME280_humidity;BME280_pressure;Samples;Min_cycle;Max_cycle;Signal;HPM_P1;HPM_P2
2024/02/24 00:01:08;;;;;;;9.93;3.07;;;2.30;99.90;;;;;;5099143;28;20211;-68
2024/02/24 00:03:36;;;;;;;7.90;2.70;;;2.30;99.90;;;;;;5103175;28;20505;-68
2024/02/24 00:06:05;;;;;;;9.60;2.90;;;2.20;99.90;;;;;;5106860;28;20479;-70
2024/02/24 00:08:33;;;;;;;9.13;2.97;;;2.20;99.90;;;;;;5099502;28;20448;-69
2024/02/24 00:11:01;;;;;;;9.33;2.80;;;2.10;99.90;;;;;;5105657;28;20802;-68
2024/02/24 00:13:29;;;;;;;8.20;2.67;;;2.00;99.90;;;;;;5105820;28;20444;-67
2024/02/24 00:15:59;;;;;;;11.90;3.60;;;2.00;99.90;;;;;;5105974;28;20503;-69
2024/02/24 00:18:27;;;;;;;9.77;2.70;;;2.10;99.90;;;;;;5102117;28;20437;-67
2024/02/24 00:20:55;;;;;;;9.70;3.30;;;2.10;99.90;;;;;;5104520;28;20492;-68
2024/02/24 00:23:23;;;;;;;9.17;3.30;;;2.10;99.90;;;;;;5106167;28;20435;-68
2024/02/24 00:25:51;;;;;;;10.33;3.30;;;2.10;99.90;;;;;;5106030;28;20465;-68
2024/02/24 00:28:19;;;;;;;9.53;3.60;;;2.00;99.90;;;;;;5103546;28;21043;-68
2024/02/24 00:30:47;;;;;;;8.90;3.00;;;1.90;99.90;;;;;;5100877;28;20450;-68
2024/02/24 00:33:16;;;;;;;10.33;3.30;;;1.90;99.90;;;;;;5097605;28;20495;-68
2024/02/24 00:35:45;;;;;;;10.73;3.00;;;1.80;99.90;;;;;;5104187;28;20841;-68
2024/02/24 00:38:13;;;;;;;9.23;3.20;;;1.90;99.90;;;;;;5102496;28;20501;-68
2024/02/24 00:40:41;;;;;;;10.70;3.63;;;1.90;99.90;;;;;;5098944;28;20447;-67
2024/02/24 00:43:09;;;;;;;10.70;2.83;;;2.10;99.90;;;;;;5096502;28;20536;-67
2024/02/24 00:45:37;;;;;;;8.63;2.93;;;2.20;99.90;;;;;;5103768;28;20485;-68
2024/02/24 00:48:05;;;;;;;10.25;3.08;;;2.20;99.90;;;;;;5100725;28;21024;-68
2024/02/24 00:50:35;;;;;;;10.48;2.88;;;2.10;99.90;;;;;;5100598;28;20674;-68
2024/02/24 00:53:03;;;;;;;9.80;3.27;;;2.00;99.90;;;;;;5097814;28;20263;-68
2024/02/24 00:55:31;;;;;;;12.63;3.60;;;2.00;99.90;;;;;;5095633;28;20460;-68
2024/02/24 00:57:59;;;;;;;9.48;3.05;;;1.80;99.90;;;;;;5095170;27;20468;-68
2024/02/24 01:00:28;;;;;;;8.60;2.57;;;1.80;99.90;;;;;;5099036;28;20257;-69
2024/02/24 01:02:56;;;;;;;11.03;3.30;;;1.70;99.90;;;;;;5098842;28;20442;-68
2024/02/24 01:05:23;;;;;;;9.93;3.40;;;1.50;99.90;;;;;;5097714;28;20556;-68
2024/02/24 01:07:55;;;;;;;9.60;3.00;;;1.50;99.90;;;;;;5102479;28;20569;-67
2024/02/24 01:10:27;;;;;;;9.40;2.80;;;1.50;99.90;;;;;;5096774;28;20444;-69
2024/02/24 01:12:54;;;;;;;10.83;3.40;;;1.70;99.90;;;;;;5105833;28;20301;-69
2024/02/24 01:15:24;;;;;;;11.73;3.00;;;1.60;99.90;;;;;;5104221;28;20466;-69
2024/02/24 01:17:55;;;;;;;7.65;2.10;;;1.60;99.90;;;;;;5093117;28;20231;-69
2024/02/24 01:20:25;;;;;;;8.80;2.85;;;1.70;99.90;;;;;;5088797;28;20201;-69
2024/02/24 01:22:57;;;;;;;10.05;3.10;;;1.70;99.90;;;;;;5086858;28;20216;-69
2024/02/24 01:25:27;;;;;;;9.82;3.13;;;1.70;99.90;;;;;;5086880;28;20240;-68
2024/02/24 01:27:55;;;;;;;12.63;3.42;;;1.70;99.90;;;;;;5100476;28;20212;-69
2024/02/24 01:30:24;;;;;;;11.65;3.35;;;1.70;99.90;;;;;;5094182;28;20198;-70
2024/02/24 01:32:52;;;;;;;9.55;3.20;;;1.70;99.90;;;;;;5107548;28;20206;-68
2024/02/24 01:35:20;;;;;;;12.30;3.03;;;1.80;99.90;;;;;;5107462;28;20456;-68
2024/02/24 01:37:48;;;;;;;13.90;3.58;;;1.90;99.90;;;;;;5102120;28;20964;-68
2024/02/24 01:40:18;;;;;;;10.30;2.63;;;1.90;99.90;;;;;;5107213;28;20977;-68
2024/02/24 01:42:46;;;;;;;8.90;2.93;;;1.90;99.90;;;;;;5107017;28;20206;-70
2024/02/24 01:45:14;;;;;;;12.83;3.10;;;1.90;99.90;;;;;;5107536;28;20476;-69
2024/02/24 01:47:42;;;;;;;9.93;3.40;;;1.90;99.90;;;;;;5097176;28;20588;-70
2024/02/24 01:50:11;;;;;;;11.00;3.00;;;2.00;99.90;;;;;;5089220;28;20476;-69
2024/02/24 01:52:40;;;;;;;14.00;3.30;;;2.10;99.90;;;;;;5096027;28;20242;-68
2024/02/24 01:55:10;;;;;;;8.87;3.10;;;2.00;99.90;;;;;;5086948;28;20558;-69
2024/02/24 01:57:43;;;;;;;14.97;4.00;;;2.20;99.90;;;;;;5094095;28;21014;-69
2024/02/24 02:00:12;;;;;;;10.10;3.13;;;2.30;99.90;;;;;;5087402;28;20497;-69
2024/02/24 02:02:41;;;;;;;10.40;3.27;;;2.50;99.90;;;;;;5104178;28;20453;-69
2024/02/24 02:05:09;;;;;;;10.17;2.73;;;2.70;99.90;;;;;;5107181;28;21039;-69
2024/02/24 02:07:38;;;;;;;8.57;2.90;;;2.90;99.90;;;;;;5096218;28;20486;-67
2024/02/24 02:10:07;;;;;;;8.67;2.87;;;3.10;99.90;;;;;;5094234;28;20956;-69
2024/02/24 02:12:35;;;;;;;9.57;2.73;;;3.20;99.90;;;;;;5094832;28;20442;-70
2024/02/24 02:15:06;;;;;;;10.30;2.53;;;3.40;99.90;;;;;;5103189;28;20457;-69
2024/02/24 02:17:35;;;;;;;8.50;2.83;;;3.60;99.90;;;;;;5102315;28;20425;-69
2024/02/24 02:20:04;;;;;;;9.27;2.03;;;3.60;99.90;;;;;;5102677;28;20490;-70
2024/02/24 02:22:34;;;;;;;11.03;2.10;;;3.70;99.90;;;;;;5102935;28;20650;-69
2024/02/24 02:25:02;;;;;;;8.80;2.37;;;3.90;99.90;;;;;;5103342;28;20457;-67
2024/02/24 02:27:29;;;;;;;8.70;2.30;;;4.00;99.90;;;;;;5102211;28;20483;-68
2024/02/24 02:29:59;;;;;;;9.50;2.53;;;4.10;99.90;;;;;;5102795;28;20576;-69
2024/02/24 02:32:28;;;;;;;10.10;1.90;;;4.10;99.90;;;;;;5102010;28;20448;-68
2024/02/24 02:34:56;;;;;;;9.00;2.30;;;4.20;99.90;;;;;;5103366;28;20447;-69
2024/02/24 02:37:24;;;;;;;9.43;2.07;;;4.10;99.90;;;;;;5103067;28;20486;-68
2024/02/24 02:39:53;;;;;;;9.23;2.50;;;4.00;99.90;;;;;;5103186;28;20445;-70
2024/02/24 02:42:21;;;;;;;9.83;2.47;;;3.90;99.90;;;;;;5103103;28;20457;-69
2024/02/24 02:44:49;;;;;;;10.20;2.03;;;3.80;99.90;;;;;;5103053;28;20440;-69
2024/02/24 02:47:17;;;;;;;8.83;2.47;;;3.60;99.90;;;;;;5103344;28;20810;-69
2024/02/24 02:49:51;;;;;;;8.23;2.20;;;3.50;99.90;;;;;;5103237;28;20461;-69
2024/02/24 02:52:19;;;;;;;8.03;1.97;;;3.40;99.90;;;;;;5103328;28;20813;-69
2024/02/24 02:54:46;;;;;;;7.43;2.00;;;3.40;99.90;;;;;;5102685;28;20469;-69
2024/02/24 02:57:16;;;;;;;8.67;2.43;;;3.60;99.90;;;;;;5102789;28;20433;-69
2024/02/24 02:59:44;;;;;;;7.90;1.73;;;3.50;99.90;;;;;;5102280;28;20519;-68
2024/02/24 03:02:12;;;;;;;6.77;1.40;;;3.60;99.90;;;;;;5105365;28;20577;-69
2024/02/24 03:04:40;;;;;;;8.33;1.53;;;3.70;99.90;;;;;;5106984;28;20557;-69
2024/02/24 03:07:08;;;;;;;9.90;1.23;;;3.80;99.90;;;;;;5106853;28;20579;-68
2024/02/24 03:09:36;;;;;;;7.10;1.20;;;3.90;99.90;;;;;;5106110;28;20525;-69
2024/02/24 03:12:04;;;;;;;7.60;1.23;;;4.00;99.90;;;;;;5099766;28;20434;-70
2024/02/24 03:14:34;;;;;;;8.93;1.10;;;4.00;99.90;;;;;;5097736;28;20539;-69
2024/02/24 03:17:02;;;;;;;7.97;1.10;;;4.00;99.90;;;;;;5105209;28;20461;-70
2024/02/24 03:19:30;;;;;;;6.60;1.10;;;4.00;99.90;;;;;;5092779;28;20445;-70
2024/02/24 03:21:58;;;;;;;7.50;0.93;;;4.10;99.90;;;;;;5095564;28;20502;-69
2024/02/24 03:24:26;;;;;;;7.23;1.07;;;4.20;99.90;;;;;;5102468;28;20442;-69
2024/02/24 03:26:54;;;;;;;6.30;1.00;;;4.30;99.90;;;;;;5097164;28;20531;-68
2024/02/24 03:29:22;;;;;;;6.80;1.10;;;4.40;99.90;;;;;;5092184;28;21155;-68
2024/02/24 03:31:51;;;;;;;7.73;0.80;;;4.50;99.90;;;;;;5110677;28;20449;-68
2024/02/24 03:34:20;;;;;;;7.20;1.00;;;4.60;99.90;;;;;;5102594;28;21097;-68
2024/02/24 03:36:48;;;;;;;6.60;1.00;;;4.70;99.90;;;;;;5097131;28;20462;-69
2024/02/24 03:39:18;;;;;;;6.50;0.77;;;4.70;99.90;;;;;;5093380;28;20437;-67
2024/02/24 03:41:46;;;;;;;7.67;0.90;;;4.70;99.90;;;;;;5089257;28;20468;-68
2024/02/24 03:44:14;;;;;;;6.60;1.00;;;4.70;99.90;;;;;;5104525;28;20446;-67
2024/02/24 03:46:43;;;;;;;6.60;1.00;;;4.80;99.90;;;;;;5110245;28;20467;-68
2024/02/24 03:49:13;;;;;;;7.67;0.90;;;4.80;99.90;;;;;;5109168;28;20570;-68
2024/02/24 03:51:41;;;;;;;6.53;0.80;;;4.80;99.90;;;;;;5104759;28;20495;-68
2024/02/24 03:54:10;;;;;;;6.30;0.70;;;4.80;99.90;;;;;;5109851;28;20451;-68
2024/02/24 03:56:38;;;;;;;6.47;0.70;;;4.80;99.90;;;;;;5095570;28;21212;-68
2024/02/24 03:59:06;;;;;;;8.20;0.93;;;4.80;99.90;;;;;;5109605;28;20465;-68
2024/02/24 04:01:40;;;;;;;6.47;0.87;;;4.80;99.90;;;;;;5102108;28;20474;-67
2024/02/24 04:04:08;;;;;;;6.50;1.00;;;4.80;99.90;;;;;;5103185;28;20789;-67
2024/02/24 04:06:38;;;;;;;6.33;0.77;;;4.80;99.90;;;;;;5100904;28;20513;-68
2024/02/24 04:09:06;;;;;;;7.30;1.10;;;4.80;99.90;;;;;;5088105;28;20519;-68
2024/02/24 04:11:35;;;;;;;7.00;1.17;;;4.70;99.90;;;;;;5099756;28;20453;-69
2024/02/24 04:14:05;;;;;;;6.80;1.20;;;4.60;99.90;;;;;;5094799;28;20744;-69
2024/02/24 04:16:33;;;;;;;7.30;1.20;;;4.50;99.90;;;;;;5093499;28;20462;-68
2024/02/24 04:19:01;;;;;;;8.07;1.30;;;4.40;99.90;;;;;;5100470;28;20575;-68
2024/02/24 04:21:30;;;;;;;7.90;1.57;;;4.20;99.90;;;;;;5108063;28;20450;-69
2024/02/24 04:23:59;;;;;;;7.40;1.33;;;4.20;99.90;;;;;;5088840;28;20531;-68
2024/02/24 04:26:27;;;;;;;8.33;1.73;;;4.10;99.90;;;;;;5094564;28;20475;-68
2024/02/24 04:28:55;;;;;;;7.23;1.17;;;4.10;99.90;;;;;;5092334;28;20575;-68
2024/02/24 04:31:23;;;;;;;6.60;1.33;;;4.10;99.90;;;;;;5089376;28;20503;-69
2024/02/24 04:33:50;;;;;;;7.63;1.47;;;4.20;99.90;;;;;;5106780;28;20449;-68
2024/02/24 04:36:19;;;;;;;8.00;1.57;;;4.10;99.90;;;;;;5106008;28;20837;-68
2024/02/24 04:38:48;;;;;;;7.37;1.73;;;4.00;99.90;;;;;;5108261;28;20450;-69
2024/02/24 04:41:17;;;;;;;8.80;1.37;;;4.10;99.90;;;;;;5107728;28;20452;-69
2024/02/24 04:43:45;;;;;;;7.00;1.33;;;4.00;99.90;;;;;;5097643;28;20500;-68
2024/02/24 04:46:15;;;;;;;8.63;1.53;;;4.00;99.90;;;;;;5093805;28;20474;-68
2024/02/24 04:48:43;;;;;;;6.70;1.03;;;4.00;99.90;;;;;;5107348;28;20537;-68
2024/02/24 04:51:11;;;;;;;8.07;1.63;;;4.00;99.90;;;;;;5108074;28;20480;-68
2024/02/24 04:53:39;;;;;;;7.50;1.50;;;4.10;99.90;;;;;;5092641;28;20824;-69
2024/02/24 04:56:07;;;;;;;6.90;1.43;;;4.10;99.90;;;;;;5097482;28;20469;-68
2024/02/24 04:58:37;;;;;;;8.13;1.17;;;4.10;99.90;;;;;;5088275;28;20446;-68
2024/02/24 05:01:05;;;;;;;9.47;1.33;;;4.20;99.90;;;;;;5093668;28;20967;-68
2024/02/24 05:03:33;;;;;;;7.10;1.20;;;4.20;99.90;;;;;;5098292;28;20442;-69
2024/02/24 05:06:01;;;;;;;6.80;1.33;;;4.20;99.90;;;;;;5097451;28;20517;-68
2024/02/24 05:08:29;;;;;;;7.47;1.10;;;4.30;99.90;;;;;;5104616;28;20482;-68
2024/02/24 05:10:58;;;;;;;8.47;1.30;;;4.20;99.90;;;;;;5107646;28;20554;-69
2024/02/24 05:13:26;;;;;;;7.00;1.30;;;4.20;99.90;;;;;;5090602;28;20442;-69
2024/02/24 05:15:55;;;;;;;7.43;2.33;;;4.20;99.90;;;;;;5087452;28;20505;-68
2024/02/24 05:18:23;;;;;;;7.73;1.50;;;4.20;99.90;;;;;;5106844;28;20494;-69
2024/02/24 05:20:52;;;;;;;6.80;1.03;;;4.40;99.90;;;;;;5094135;28;20450;-68
2024/02/24 05:23:20;;;;;;;8.83;1.33;;;4.40;99.90;;;;;;5098494;28;20450;-68
2024/02/24 05:25:48;;;;;;;6.73;1.13;;;4.40;99.90;;;;;;5096293;28;20488;-69
2024/02/24 05:28:16;;;;;;;8.13;1.00;;;4.40;99.90;;;;;;5106535;28;20472;-66
2024/02/24 05:30:45;;;;;;;8.17;1.17;;;4.40;99.90;;;;;;5095730;28;20481;-68
2024/02/24 05:33:14;;;;;;;7.10;1.10;;;4.40;99.90;;;;;;5087225;28;21019;-68
2024/02/24 05:35:43;;;;;;;7.10;1.00;;;4.50;99.90;;;;;;5096305;28;20500;-68
2024/02/24 05:38:11;;;;;;;6.90;1.30;;;4.50;99.90;;;;;;5106937;28;20446;-69
2024/02/24 05:40:39;;;;;;;7.80;1.47;;;4.60;99.90;;;;;;5105347;28;20438;-68
2024/02/24 05:43:07;;;;;;;6.57;1.20;;;4.60;99.90;;;;;;5101123;28;20451;-69
2024/02/24 05:45:35;;;;;;;6.70;0.97;;;4.60;99.90;;;;;;5087292;28;20495;-68
2024/02/24 05:48:03;;;;;;;7.30;0.93;;;4.50;99.90;;;;;;5087549;28;20512;-68
2024/02/24 05:50:33;;;;;;;9.17;1.00;;;4.70;99.90;;;;;;5090882;28;20473;-68
2024/02/24 05:53:01;;;;;;;7.00;1.27;;;4.70;99.90;;;;;;5087353;28;20788;-68
2024/02/24 05:55:29;;;;;;;6.43;0.80;;;4.70;99.90;;;;;;5086914;28;20495;-69
2024/02/24 05:57:57;;;;;;;7.20;1.20;;;4.60;99.90;;;;;;5086702;28;20452;-68
2024/02/24 06:00:25;;;;;;;7.23;1.10;;;4.60;99.90;;;;;;5089652;28;21026;-69
2024/02/24 06:02:53;;;;;;;8.37;1.10;;;4.60;99.90;;;;;;5086445;28;20882;-69
2024/02/24 06:05:21;;;;;;;6.60;1.00;;;4.50;99.90;;;;;;5086582;28;20474;-68
2024/02/24 06:07:51;;;;;;;10.60;1.50;;;4.50;99.90;;;;;;5088617;28;20462;-69
2024/02/24 06:10:20;;;;;;;7.30;1.57;;;4.60;99.90;;;;;;5092418;28;20486;-68
2024/02/24 06:12:48;;;;;;;6.80;1.00;;;4.60;99.90;;;;;;5087369;28;20456;-68
2024/02/24 06:15:16;;;;;;;8.00;1.30;;;4.60;99.90;;;;;;5092594;28;20475;-68
2024/02/24 06:17:44;;;;;;;7.20;1.03;;;4.50;99.90;;;;;;5087498;28;20523;-69
2024/02/24 06:20:14;;;;;;;6.83;1.10;;;4.50;99.90;;;;;;5087677;28;20454;-69
2024/02/24 06:22:42;;;;;;;6.60;1.20;;;4.50;99.90;;;;;;5097495;28;20554;-69
2024/02/24 06:25:12;;;;;;;10.37;1.67;;;4.50;99.90;;;;;;5107303;28;20469;-69
2024/02/24 06:27:41;;;;;;;6.63;1.20;;;4.60;99.90;;;;;;5107648;28;20488;-68
2024/02/24 06:30:09;;;;;;;7.90;1.23;;;4.60;99.90;;;;;;5107634;28;20483;-68
2024/02/24 06:32:38;;;;;;;9.13;1.83;;;4.60;99.90;;;;;;5090235;28;20484;-68
2024/02/24 06:35:06;;;;;;;6.73;1.37;;;4.70;99.90;;;;;;5092672;28;20462;-69
2024/02/24 06:37:34;;;;;;;7.10;1.30;;;4.80;99.90;;;;;;5107864;28;20451;-68
2024/02/24 06:40:02;;;;;;;7.07;1.50;;;4.80;99.90;;;;;;5107065;28;20445;-69
2024/02/24 06:42:32;;;;;;;9.20;1.70;;;4.70;99.90;;;;;;5106757;28;20461;-68
2024/02/24 06:45:00;;;;;;;6.70;1.10;;;4.70;99.90;;;;;;5107965;28;20452;-68
2024/02/24 06:47:28;;;;;;;10.13;1.97;;;4.70;99.90;;;;;;5092697;28;20456;-69
2024/02/24 06:49:56;;;;;;;7.60;1.70;;;4.80;99.90;;;;;;5101448;28;20480;-68
2024/02/24 06:52:24;;;;;;;7.57;1.93;;;4.70;99.90;;;;;;5111659;28;20460;-68
2024/02/24 06:54:52;;;;;;;8.50;2.07;;;4.70;99.90;;;;;;5111525;28;20458;-69
2024/02/24 06:57:20;;;;;;;10.13;2.20;;;4.70;99.90;;;;;;5111863;28;20456;-69
2024/02/24 06:59:50;;;;;;;7.60;2.00;;;4.60;99.90;;;;;;5109181;28;20510;-69
2024/02/24 07:02:18;;;;;;;7.27;1.50;;;4.70;99.90;;;;;;5108459;28;20450;-68
2024/02/24 07:04:46;;;;;;;8.20;1.67;;;4.70;99.90;;;;;;5100517;28;20448;-68
2024/02/24 07:07:14;;;;;;;7.20;1.77;;;4.80;99.90;;;;;;5096372;28;20538;-68
2024/02/24 07:09:42;;;;;;;6.83;1.20;;;4.80;99.90;;;;;;5090927;28;20476;-68
2024/02/24 07:12:10;;;;;;;6.40;1.20;;;4.90;99.90;;;;;;5090436;28;20442;-66
2024/02/24 07:14:38;;;;;;;6.87;1.20;;;4.90;99.90;;;;;;5103614;28;20857;-68
2024/02/24 07:17:08;;;;;;;6.50;1.07;;;5.00;99.90;;;;;;5110478;28;20466;-67
2024/02/24 07:19:35;;;;;;;7.30;1.30;;;5.10;99.90;;;;;;5109922;28;20435;-68
2024/02/24 07:22:04;;;;;;;7.43;1.43;;;5.10;99.90;;;;;;5110204;28;20445;-69
2024/02/24 07:24:32;;;;;;;6.80;1.00;;;5.10;99.90;;;;;;5109274;28;20530;-67
2024/02/24 07:27:00;;;;;;;6.87;1.60;;;5.20;99.90;;;;;;5106009;28;20501;-68
2024/02/24 07:29:29;;;;;;;7.50;1.40;;;5.20;99.90;;;;;;5105830;28;20915;-68
2024/02/24 07:31:57;;;;;;;6.80;1.20;;;5.30;99.90;;;;;;5105956;28;20468;-67
2024/02/24 07:34:26;;;;;;;6.60;1.20;;;5.40;99.90;;;;;;5108111;28;20443;-68
2024/02/24 07:36:54;;;;;;;8.07;1.30;;;5.30;99.90;;;;;;5103636;28;20460;-69
2024/02/24 07:39:22;;;;;;;9.03;1.50;;;5.30;99.90;;;;;;5108003;28;20487;-68
2024/02/24 07:41:50;;;;;;;7.17;1.33;;;5.40;99.90;;;;;;5105010;28;20443;-68
2024/02/24 07:44:18;;;;;;;8.60;1.40;;;5.40;99.90;;;;;;5107843;28;20466;-68
2024/02/24 07:46:47;;;;;;;10.30;1.17;;;5.40;99.90;;;;;;5103171;28;20844;-67
2024/02/24 07:49:15;;;;;;;6.37;1.10;;;5.60;99.90;;;;;;5101288;28;20865;-68
2024/02/24 07:51:44;;;;;;;6.70;1.43;;;5.60;99.90;;;;;;5108467;28;20924;-68
2024/02/24 07:54:12;;;;;;;7.30;1.47;;;5.70;99.90;;;;;;5103435;28;20446;-68
2024/02/24 07:56:40;;;;;;;6.93;1.00;;;5.80;99.90;;;;;;5093263;28;20456;-68
2024/02/24 07:59:08;;;;;;;6.87;1.03;;;6.00;99.90;;;;;;5093092;28;20929;-68
2024/02/24 08:01:36;;;;;;;7.90;1.40;;;6.10;99.90;;;;;;5108994;28;20441;-67
2024/02/24 08:04:04;;;;;;;6.80;1.17;;;6.00;99.90;;;;;;5107346;28;20461;-69
2024/02/24 08:06:33;;;;;;;6.40;0.80;;;6.10;99.90;;;;;;5107596;28;20555;-69
2024/02/24 08:09:03;;;;;;;6.47;0.80;;;6.10;99.90;;;;;;5106447;28;20494;-68
2024/02/24 08:11:39;;;;;;;8.17;0.77;;;6.10;99.90;;;;;;5108816;28;20482;-68
2024/02/24 08:14:08;;;;;;;6.20;0.57;;;6.10;99.90;;;;;;5109070;28;20953;-69
2024/02/24 08:16:37;;;;;;;5.90;0.47;;;6.10;99.90;;;;;;5108195;28;21059;-68
2024/02/24 08:19:06;;;;;;;6.00;0.67;;;6.20;99.90;;;;;;5109109;28;20497;-68
2024/02/24 08:21:36;;;;;;;7.03;0.63;;;6.10;99.90;;;;;;5100841;28;20451;-68
2024/02/24 08:24:09;;;;;;;6.93;0.70;;;6.20;99.90;;;;;;5089035;28;20943;-67
2024/02/24 08:26:39;;;;;;;6.20;0.63;;;6.20;99.90;;;;;;5088929;28;20472;-67
2024/02/24 08:29:09;;;;;;;6.10;0.70;;;6.20;99.90;;;;;;5095369;28;20537;-67
2024/02/24 08:31:38;;;;;;;5.73;0.40;;;6.10;99.90;;;;;;5089287;28;20491;-68
2024/02/24 08:34:07;;;;;;;7.43;0.50;;;6.10;99.90;;;;;;5090750;28;20456;-67
2024/02/24 08:36:35;;;;;;;5.87;0.50;;;6.10;99.90;;;;;;5104997;28;20476;-68
2024/02/24 08:39:05;;;;;;;5.90;0.50;;;6.20;99.90;;;;;;5104134;28;20437;-68
2024/02/24 08:41:36;;;;;;;6.60;0.50;;;6.20;99.90;;;;;;5101707;28;20440;-68
2024/02/24 08:44:05;;;;;;;6.20;0.60;;;6.20;99.90;;;;;;5107833;28;20522;-68
2024/02/24 08:46:33;;;;;;;7.13;0.60;;;6.40;99.90;;;;;;5103019;28;20466;-68
2024/02/24 08:49:01;;;;;;;5.83;0.40;;;6.60;99.90;;;;;;5103857;28;20445;-69
2024/02/24 08:51:29;;;;;;;6.10;0.40;;;6.80;99.90;;;;;;5104240;28;20480;-68
2024/02/24 08:53:57;;;;;;;6.10;0.60;;;7.00;99.90;;;;;;5105270;28;21179;-68
2024/02/24 08:56:25;;;;;;;6.03;0.60;;;7.10;99.90;;;;;;5100056;28;20548;-68
2024/02/24 08:58:55;;;;;;;6.00;0.60;;;7.30;99.90;;;;;;5106324;28;20448;-68
2024/02/24 09:01:23;;;;;;;6.30;0.70;;;7.50;99.90;;;;;;5103657;28;20486;-68
2024/02/24 09:03:55;;;;;;;5.90;0.60;;;7.70;99.90;;;;;;5107825;28;20438;-68
2024/02/24 09:06:23;;;;;;;5.93;0.50;;;7.80;99.90;;;;;;5105522;28;20453;-68
2024/02/24 09:08:53;;;;;;;5.97;0.47;;;8.00;99.90;;;;;;5106259;28;20951;-67
2024/02/24 09:11:21;;;;;;;6.40;0.60;;;8.20;99.90;;;;;;5105844;28;20496;-67
2024/02/24 09:13:49;;;;;;;6.10;0.57;;;8.50;99.90;;;;;;5107216;28;20434;-67
2024/02/24 09:16:19;;;;;;;6.63;0.50;;;8.80;99.90;;;;;;5107656;28;21435;-67
2024/02/24 09:18:47;;;;;;;5.73;0.40;;;9.10;99.90;;;;;;5095486;28;20984;-66
2024/02/24 09:21:15;;;;;;;6.33;0.40;;;9.40;99.90;;;;;;5090962;28;20444;-67
2024/02/24 09:23:43;;;;;;;7.30;0.70;;;9.50;99.90;;;;;;5088736;28;20449;-66
2024/02/24 09:26:11;;;;;;;6.07;0.60;;;9.70;98.10;;;;;;5106621;28;20467;-67
2024/02/24 09:28:38;;;;;;;7.70;0.77;;;10.00;97.70;;;;;;5107778;28;20485;-67
2024/02/24 09:31:06;;;;;;;6.03;0.53;;;10.30;96.50;;;;;;5108198;28;20476;-67
2024/02/24 09:33:35;;;;;;;6.00;0.60;;;10.70;95.10;;;;;;5096397;28;20501;-67
2024/02/24 09:36:03;;;;;;;6.10;0.50;;;10.80;93.10;;;;;;5103730;28;20468;-66
2024/02/24 09:38:31;;;;;;;5.93;0.50;;;10.70;93.50;;;;;;5107894;28;20477;-66
2024/02/24 09:40:59;;;;;;;6.00;0.50;;;10.70;93.20;;;;;;5107702;28;20448;-66
2024/02/24 09:43:28;;;;;;;6.00;0.40;;;10.60;91.50;;;;;;5105273;28;21276;-67
2024/02/24 09:45:56;;;;;;;5.80;0.40;;;10.20;90.90;;;;;;5105107;28;20480;-66
2024/02/24 09:48:24;;;;;;;5.70;0.40;;;9.80;92.20;;;;;;5107278;28;20469;-67
2024/02/24 09:50:54;;;;;;;6.07;0.80;;;9.40;92.80;;;;;;5107491;28;20843;-67
2024/02/24 09:53:22;;;;;;;6.70;0.60;;;9.20;94.70;;;;;;5108082;28;20450;-66
2024/02/24 09:55:50;;;;;;;6.40;0.50;;;9.20;93.60;;;;;;5108189;28;20488;-67
2024/02/24 09:58:21;;;;;;;6.20;0.50;;;9.20;93.20;;;;;;5108458;28;20451;-66
2024/02/24 10:00:51;;;;;;;6.23;0.57;;;9.20;93.30;;;;;;5101624;28;20482;-65
2024/02/24 10:03:21;;;;;;;6.00;0.50;;;9.20;93.60;;;;;;5104299;28;20445;-68
2024/02/24 10:05:50;;;;;;;6.83;0.50;;;9.20;93.30;;;;;;5107096;28;20543;-67
2024/02/24 10:08:19;;;;;;;7.07;0.80;;;9.10;92.50;;;;;;5097309;28;20502;-67
2024/02/24 10:10:48;;;;;;;5.80;0.50;;;9.30;93.40;;;;;;5088537;28;20447;-68
2024/02/24 10:13:19;;;;;;;5.80;0.50;;;9.30;91.40;;;;;;5097953;28;20874;-66
2024/02/24 10:15:47;;;;;;;6.10;0.50;;;9.40;90.70;;;;;;5104743;28;20501;-66
2024/02/24 10:18:16;;;;;;;6.73;0.50;;;9.10;90.50;;;;;;5098104;28;20509;-66
2024/02/24 10:20:46;;;;;;;6.63;0.60;;;8.90;90.90;;;;;;5094558;28;20881;-66
2024/02/24 10:23:14;;;;;;;5.90;0.47;;;8.90;90.30;;;;;;5099854;28;21165;-65
2024/02/24 10:25:43;;;;;;;6.40;1.00;;;8.70;90.40;;;;;;5101547;28;20470;-65
2024/02/24 10:28:12;;;;;;;6.53;0.80;;;8.70;89.10;;;;;;5109504;28;20448;-66
2024/02/24 10:30:40;;;;;;;6.40;0.67;;;8.70;90.40;;;;;;5108656;28;20445;-67
2024/02/24 10:33:09;;;;;;;5.93;0.50;;;8.60;90.40;;;;;;5101821;28;20482;-67
2024/02/24 10:35:38;;;;;;;6.00;0.40;;;8.90;90.90;;;;;;5108336;28;20478;-65
2024/02/24 10:38:07;;;;;;;7.37;0.50;;;9.10;90.20;;;;;;5104308;28;20998;-66
2024/02/24 10:40:59;;;;;;;6.50;0.50;;;9.30;87.00;;;;;;5104646;28;20428;-66
2024/02/24 10:43:28;;;;;;;5.87;0.67;;;9.70;87.10;;;;;;5091075;28;20475;-66
2024/02/24 10:45:56;;;;;;;5.73;0.40;;;9.90;86.30;;;;;;5109317;28;20466;-65
2024/02/24 10:48:24;;;;;;;6.17;0.70;;;9.70;83.30;;;;;;5110616;28;20447;-66
2024/02/24 10:50:52;;;;;;;5.90;0.50;;;9.50;85.70;;;;;;5103098;28;20461;-68
2024/02/24 10:53:27;;;;;;;6.63;0.60;;;9.40;85.30;;;;;;5105895;28;20484;-66
2024/02/24 10:55:59;;;;;;;6.13;0.43;;;9.50;83.80;;;;;;5097143;28;20491;-66
2024/02/24 10:58:27;;;;;;;6.80;0.53;;;9.70;84.50;;;;;;5105109;28;20448;-67
2024/02/24 11:00:55;;;;;;;6.17;0.50;;;9.90;81.80;;;;;;5106829;28;20437;-66
2024/02/24 11:03:23;;;;;;;5.90;0.40;;;10.10;78.40;;;;;;5102736;28;21120;-66
2024/02/24 11:05:52;;;;;;;6.13;0.50;;;10.20;80.20;;;;;;5107694;28;20455;-67
2024/02/24 11:08:36;;;;;;;5.93;0.50;;;10.50;79.20;;;;;;5109703;28;20945;-67
2024/02/24 11:11:08;;;;;;;6.00;0.47;;;10.80;76.90;;;;;;5103391;28;21187;-66
2024/02/24 11:13:36;;;;;;;6.17;0.40;;;10.60;74.80;;;;;;5107268;28;20946;-67
2024/02/24 11:16:10;;;;;;;7.30;1.60;;;10.40;75.00;;;;;;5094781;28;20568;-66
2024/02/24 11:18:54;;;;;;;5.70;0.40;;;10.40;75.30;;;;;;5106514;28;20481;-68
2024/02/24 11:22:03;;;;;;;6.60;0.40;;;10.50;75.10;;;;;;5093958;28;21096;-67
2024/02/24 11:24:33;;;;;;;5.80;0.50;;;10.70;74.30;;;;;;5105837;28;20490;-68
2024/02/24 11:27:01;;;;;;;5.90;0.50;;;10.80;71.10;;;;;;5107767;28;20874;-67
2024/02/24 11:29:30;;;;;;;6.40;0.60;;;10.80;71.40;;;;;;5102434;28;20449;-67
2024/02/24 11:32:15;;;;;;;6.00;0.50;;;11.10;72.50;;;;;;5109307;28;20477;-67
2024/02/24 11:34:45;;;;;;;6.50;1.00;;;11.40;69.00;;;;;;5105179;28;20433;-66
2024/02/24 11:37:18;;;;;;;5.80;0.50;;;11.40;70.00;;;;;;5097212;28;20470;-66
2024/02/24 11:39:47;;;;;;;7.00;1.00;;;11.40;69.10;;;;;;5098352;28;20450;-66
2024/02/24 11:42:15;;;;;;;5.90;0.50;;;12.00;69.20;;;;;;5110619;28;20873;-64
2024/02/24 11:44:45;;;;;;;6.00;0.50;;;12.70;66.30;;;;;;5110601;28;20439;-66
2024/02/24 11:47:17;;;;;;;6.10;0.50;;;13.10;63.80;;;;;;5107798;28;20448;-66
2024/02/24 11:49:47;;;;;;;5.80;0.40;;;13.20;61.10;;;;;;5107579;28;20436;-66
2024/02/24 11:52:17;;;;;;;5.90;0.50;;;13.10;61.60;;;;;;5100386;28;20560;-66
2024/02/24 11:54:45;;;;;;;6.10;0.40;;;13.40;59.80;;;;;;5089943;28;20455;-67
2024/02/24 11:57:14;;;;;;;6.20;0.40;;;13.90;59.20;;;;;;5109164;28;20602;-66
2024/02/24 11:59:42;;;;;;;5.83;0.40;;;14.90;56.80;;;;;;5110469;28;20449;-66
2024/02/24 12:02:10;;;;;;;5.73;0.43;;;15.10;55.00;;;;;;5109975;28;20811;-66
2024/02/24 12:04:38;;;;;;;6.60;0.50;;;14.20;53.80;;;;;;5095477;28;21446;-68
2024/02/24 12:07:06;;;;;;;6.10;0.73;;;13.50;54.90;;;;;;5102850;28;20458;-66
2024/02/24 12:09:36;;;;;;;6.90;0.70;;;13.50;55.40;;;;;;5106224;28;20532;-67
2024/02/24 12:12:04;;;;;;;5.93;0.50;;;14.10;56.40;;;;;;5107721;28;20552;-68
2024/02/24 12:14:33;;;;;;;6.67;0.70;;;15.10;54.30;;;;;;5101336;28;21001;-67
2024/02/24 12:17:01;;;;;;;6.07;0.50;;;15.60;53.50;;;;;;5105426;28;20977;-68
2024/02/24 12:19:30;;;;;;;5.80;0.40;;;16.30;51.50;;;;;;5102692;28;20429;-67
2024/02/24 12:21:58;;;;;;;6.00;0.57;;;16.50;50.40;;;;;;5097347;28;20439;-67
2024/02/24 12:24:27;;;;;;;6.63;0.50;;;16.60;50.30;;;;;;5088788;28;20920;-66
2024/02/24 12:27:01;;;;;;;5.90;0.40;;;16.40;49.50;;;;;;5096502;28;20486;-67
2024/02/24 12:29:30;;;;;;;6.10;0.50;;;16.40;50.70;;;;;;5104120;28;20511;-67
2024/02/24 12:31:58;;;;;;;5.90;0.60;;;15.90;50.60;;;;;;5099139;28;20438;-66
2024/02/24 12:34:26;;;;;;;6.10;0.50;;;15.10;51.30;;;;;;5099699;28;20935;-66
2024/02/24 12:36:55;;;;;;;5.83;0.40;;;14.20;51.70;;;;;;5106744;28;20457;-65
2024/02/24 12:39:24;;;;;;;6.03;0.60;;;13.20;53.50;;;;;;5095722;28;20449;-67
2024/02/24 12:41:53;;;;;;;6.33;0.73;;;12.60;54.60;;;;;;5107495;28;20983;-66
2024/02/24 12:44:22;;;;;;;7.87;0.90;;;12.40;57.10;;;;;;5107043;28;20527;-66
2024/02/24 12:46:50;;;;;;;6.43;0.50;;;12.30;57.00;;;;;;5106912;28;20485;-66
2024/02/24 12:49:18;;;;;;;6.30;0.50;;;12.00;57.50;;;;;;5098254;28;21050;-65
2024/02/24 12:51:51;;;;;;;6.67;0.60;;;11.60;57.40;;;;;;5085264;28;20442;-66
2024/02/24 12:54:19;;;;;;;6.40;0.80;;;11.20;58.50;;;;;;5083454;28;20478;-65
2024/02/24 12:56:47;;;;;;;6.60;0.60;;;11.10;58.80;;;;;;5103075;28;20575;-66
2024/02/24 12:59:18;;;;;;;6.10;0.60;;;10.90;59.60;;;;;;5100316;28;20480;-66
2024/02/24 13:01:47;;;;;;;6.03;0.57;;;10.90;59.80;;;;;;5103675;28;20495;-67